Terminal Aerodrome Forecast
Issued by NWS Grand Rapids, MI

Home | Current Version | Previous Version | Text Only | Print | Product List | Glossary On
Versions: 1 2 3 4 5 6 7 8 9 10 11 12 13 14 15 16 17 18 19 20
000
FTUS43 KGRR 070018 AAA
TAFGRR
TAF AMD
KGRR 070018Z 0700/0724 18009KT 5SM HZ SCT040 BKN250
     FM070700 21011KT 6SM -SHRA BR VCTS BKN025CB OVC050
     FM071100 28010KT 4SM -SHRA BR OVC009
     FM071500 36010KT P6SM SCT025
     FM071800 32011G20KT P6SM SKC=

USA.gov is the U.S. government's official web portal to all federal, state and local government web resources and services.